RIC weather

Richmond International Airport
Richmond, Virginia, United States

Public forecast

Using degrees Fahrenheit for public forecast. Weather courtesy of forecast.io.

Current aviation weather report (METAR) for Richmond International Airport

Retrieved 2019/10/18 18:54 UTC (46 minutes ago):

KRIC 181854Z 32009KT 300V360 10SM FEW060 18/02 A2996 RMK AO2 SLP148 T01830022

Aviation forecast (TAF) for Richmond International Airport

Retrieved 2019/10/18 18:48 UTC (52 minutes ago):

TAF KRIC 181747Z 1818/1918 32010KT P6SM FEW050 FM182300 VRB02KT P6SM SKC FM191500 14004KT P6SM SCT250